createdAt,value
2023-02-09T00:01:57.488Z,23.45
2023-02-09T00:04:28.615Z,23.33
2023-02-09T00:06:56.753Z,24.38
2023-02-09T00:09:25.331Z,24.13
2023-02-09T00:12:11.882Z,23.50
2023-02-09T00:14:40.054Z,23.30
2023-02-09T00:17:08.682Z,23.13
2023-02-09T00:19:36.774Z,23.17
2023-02-09T00:22:04.731Z,23.80
2023-02-09T00:24:32.835Z,23.98
2023-02-09T00:27:02.524Z,23.85
2023-02-09T00:29:30.476Z,23.40
2023-02-09T00:31:58.394Z,22.73
2023-02-09T00:34:26.294Z,23.23
2023-02-09T00:36:54.179Z,22.88
2023-02-09T00:39:22.103Z,24.02
2023-02-09T00:42:07.883Z,23.60
2023-02-09T00:44:39.103Z,22.83
2023-02-09T00:47:07.647Z,22.20
2023-02-09T00:49:35.599Z,23.37
2023-02-09T00:52:04.783Z,23.15
2023-02-09T00:54:33.005Z,22.48
2023-02-09T00:57:05.211Z,22.92
2023-02-09T00:59:35.152Z,23.13
2023-02-09T01:02:04.877Z,22.47
2023-02-09T01:04:33.051Z,22.33
2023-02-09T01:07:00.995Z,23.60
2023-02-09T01:09:28.933Z,23.52
2023-02-09T01:11:57.679Z,23.43
2023-02-09T01:14:25.690Z,22.48
2023-02-09T01:16:54.419Z,23.50
2023-02-09T01:19:23.739Z,22.27
2023-02-09T01:21:51.696Z,22.23
2023-02-09T01:24:19.807Z,22.77
2023-02-09T01:26:47.924Z,21.58
2023-02-09T01:29:17.616Z,22.57
2023-02-09T01:31:46.458Z,22.83
2023-02-09T01:34:16.816Z,22.57
2023-02-09T01:36:46.924Z,21.97
2023-02-09T01:39:15.677Z,22.87
2023-02-09T01:41:44.466Z,22.63
2023-02-09T01:44:50.047Z,22.65
2023-02-09T01:47:20.970Z,21.83
2023-02-09T01:49:51.322Z,21.98
2023-02-09T01:52:24.583Z,22.37
2023-02-09T01:54:55.902Z,22.10
2023-02-09T01:57:27.993Z,22.83
2023-02-09T02:00:03.936Z,21.67
2023-02-09T02:02:32.496Z,21.92
2023-02-09T02:05:00.755Z,21.48
2023-02-09T02:07:34.234Z,21.85
2023-02-09T02:10:03.133Z,22.53
2023-02-09T02:12:32.059Z,21.58
2023-02-09T02:15:02.620Z,21.87
2023-02-09T02:17:42.545Z,22.23
2023-02-09T02:20:43.107Z,21.47
2023-02-09T02:23:22.455Z,22.05
2023-02-09T02:26:39.474Z,22.37
2023-02-09T02:29:24.298Z,21.50
2023-02-09T02:32:09.890Z,21.95
2023-02-09T02:34:46.086Z,21.55
2023-02-09T02:37:24.588Z,20.95
2023-02-09T02:39:58.613Z,22.13
2023-02-09T02:42:52.847Z,20.70
2023-02-09T02:45:30.168Z,21.67
2023-02-09T02:48:06.431Z,21.33
2023-02-09T02:50:38.239Z,20.87
2023-02-09T02:53:07.911Z,21.83
2023-02-09T02:55:38.829Z,20.70
2023-02-09T02:58:10.255Z,21.58
2023-02-09T03:00:42.011Z,21.33
2023-02-09T03:03:16.897Z,20.23
2023-02-09T03:05:45.738Z,22.03
2023-02-09T03:08:13.629Z,22.57
2023-02-09T03:10:42.840Z,21.43
2023-02-09T03:13:19.606Z,21.53
2023-02-09T03:15:59.766Z,23.17
2023-02-09T03:18:34.121Z,21.43
2023-02-09T03:21:07.459Z,21.35
2023-02-09T03:23:46.394Z,22.23
2023-02-09T03:26:20.250Z,21.37
2023-02-09T03:28:53.534Z,22.60
2023-02-09T03:31:22.898Z,22.63
2023-02-09T03:33:52.546Z,23.00
2023-02-09T03:36:22.334Z,22.27
2023-02-09T03:38:50.341Z,22.13
2023-02-09T03:41:18.284Z,22.23
2023-02-09T03:44:03.411Z,23.40
2023-02-09T03:46:33.350Z,21.67
2023-02-09T03:49:02.879Z,22.00
2023-02-09T03:51:30.866Z,22.60
2023-02-09T03:53:59.272Z,22.10
2023-02-09T03:56:27.266Z,21.73
2023-02-09T03:58:55.192Z,21.13
2023-02-09T04:01:23.155Z,20.90
2023-02-09T04:03:51.085Z,21.87
2023-02-09T04:06:20.488Z,21.70
2023-02-09T04:08:48.384Z,21.87
2023-02-09T04:11:16.488Z,21.53
2023-02-09T04:13:44.434Z,22.23
2023-02-09T04:16:12.710Z,21.60
2023-02-09T04:18:40.627Z,20.33
2023-02-09T04:21:08.546Z,21.50
2023-02-09T04:23:38.023Z,21.63
2023-02-09T04:26:06.739Z,21.77
2023-02-09T04:28:34.898Z,21.47
2023-02-09T04:31:02.939Z,21.53
2023-02-09T04:33:31.148Z,21.40
2023-02-09T04:35:59.503Z,21.13
2023-02-09T04:38:27.530Z,21.53
2023-02-09T04:40:59.638Z,21.40
2023-02-09T04:43:27.928Z,19.17
2023-02-09T04:45:56.116Z,20.00
2023-02-09T04:48:26.573Z,19.33
2023-02-09T04:50:54.652Z,21.53
2023-02-09T04:53:23.247Z,20.60
2023-02-09T04:55:52.553Z,20.57
2023-02-09T04:58:40.062Z,19.47
2023-02-09T05:01:08.935Z,20.07
2023-02-09T05:03:44.204Z,20.10
2023-02-09T05:06:12.498Z,18.60
2023-02-09T05:08:40.428Z,19.13
2023-02-09T05:11:08.374Z,20.17
2023-02-09T05:13:37.925Z,20.30
2023-02-09T05:16:09.906Z,19.17
2023-02-09T05:18:38.154Z,19.67
2023-02-09T05:21:06.788Z,18.73
2023-02-09T05:23:37.715Z,18.93
2023-02-09T05:26:05.797Z,18.60
2023-02-09T05:28:33.886Z,19.03
2023-02-09T05:31:03.472Z,18.53
2023-02-09T05:33:31.473Z,19.33
2023-02-09T05:35:59.680Z,19.23
2023-02-09T05:38:27.805Z,18.57
2023-02-09T05:40:55.609Z,18.63
2023-02-09T05:43:23.381Z,19.10
2023-02-09T05:45:51.228Z,18.80
2023-02-09T05:48:20.522Z,18.93
2023-02-09T05:50:49.002Z,17.67
2023-02-09T05:53:16.882Z,17.60
2023-02-09T05:55:44.854Z,19.23
2023-02-09T05:58:12.659Z,18.63
2023-02-09T06:00:40.763Z,18.00
2023-02-09T06:03:08.584Z,18.13
2023-02-09T06:05:37.745Z,18.23
2023-02-09T06:08:05.808Z,17.50
2023-02-09T06:10:33.619Z,18.47
2023-02-09T06:13:01.869Z,17.83
2023-02-09T06:15:29.739Z,17.40
2023-02-09T06:17:57.571Z,18.30
2023-02-09T06:20:25.344Z,18.20
2023-02-09T06:22:54.527Z,17.80
2023-02-09T06:25:22.488Z,17.93
2023-02-09T06:27:50.352Z,18.43
2023-02-09T06:30:18.201Z,17.80
2023-02-09T06:32:46.318Z,17.83
2023-02-09T06:35:14.098Z,17.17
2023-02-09T06:37:41.931Z,18.07
2023-02-09T06:40:12.049Z,17.40
2023-02-09T06:42:45.650Z,17.53
2023-02-09T06:45:16.115Z,16.80
2023-02-09T06:47:45.573Z,16.97
2023-02-09T06:50:14.866Z,16.53
2023-02-09T06:52:43.017Z,17.40
2023-02-09T06:55:12.444Z,17.53
2023-02-09T06:57:40.489Z,17.87
2023-02-09T07:00:10.586Z,17.97
2023-02-09T07:02:38.404Z,18.07
2023-02-09T07:05:06.434Z,17.33
2023-02-09T07:07:34.493Z,17.20
2023-02-09T07:10:02.405Z,16.97
2023-02-09T07:12:31.621Z,17.63
2023-02-09T07:14:59.427Z,16.90
2023-02-09T07:17:29.040Z,16.37
2023-02-09T07:19:57.451Z,16.40
2023-02-09T07:22:25.550Z,17.00
2023-02-09T07:24:53.828Z,16.53
2023-02-09T07:27:21.672Z,16.70
2023-02-09T07:29:50.862Z,16.73
2023-02-09T07:32:18.749Z,15.77
2023-02-09T07:34:46.914Z,16.47
2023-02-09T07:37:14.695Z,16.87
2023-02-09T07:39:42.632Z,17.27
2023-02-09T07:42:11.349Z,17.57
2023-02-09T07:44:39.146Z,17.57
2023-02-09T07:47:08.348Z,17.00
2023-02-09T07:49:36.536Z,16.33
2023-02-09T07:52:05.245Z,18.17
2023-02-09T07:54:33.159Z,16.40
2023-02-09T07:57:03.808Z,17.43
2023-02-09T07:59:31.714Z,16.07
2023-02-09T08:01:59.644Z,16.80
2023-02-09T08:04:29.352Z,15.93
2023-02-09T08:06:57.644Z,17.13
2023-02-09T08:09:26.025Z,16.57
2023-02-09T08:11:57.035Z,16.03
2023-02-09T08:14:29.798Z,14.57
2023-02-09T08:17:16.587Z,14.93
2023-02-09T08:19:50.335Z,14.83
2023-02-09T08:22:18.472Z,14.20
2023-02-09T08:24:46.283Z,15.37
2023-02-09T08:27:14.527Z,14.10
2023-02-09T08:29:42.605Z,14.53
2023-02-09T08:32:10.473Z,15.07
2023-02-09T08:34:38.328Z,15.10
2023-02-09T08:37:07.646Z,13.90
2023-02-09T08:39:35.398Z,13.90
2023-02-09T08:42:03.216Z,13.83
2023-02-09T08:44:31.065Z,13.67
2023-02-09T08:46:59.108Z,13.40
2023-02-09T08:49:27.893Z,13.67
2023-02-09T08:51:55.725Z,13.80
2023-02-09T08:54:26.334Z,12.67
2023-02-09T08:56:54.227Z,13.90
2023-02-09T08:59:23.295Z,13.63
2023-02-09T09:01:51.328Z,12.70
2023-02-09T09:04:20.905Z,12.97
2023-02-09T09:06:48.739Z,13.30
2023-02-09T09:09:16.830Z,12.70
2023-02-09T09:11:46.196Z,13.07
2023-02-09T09:14:13.972Z,13.20
2023-02-09T09:16:41.923Z,13.13
2023-02-09T09:19:09.742Z,13.53
2023-02-09T09:21:37.593Z,12.80
2023-02-09T09:24:06.262Z,12.60
2023-02-09T09:26:35.500Z,11.23
2023-02-09T09:29:05.408Z,12.70
2023-02-09T09:31:33.600Z,11.27
2023-02-09T09:34:01.573Z,12.50
2023-02-09T09:36:29.425Z,12.57
2023-02-09T09:38:57.380Z,11.57
2023-02-09T09:41:29.595Z,12.93
2023-02-09T09:43:58.426Z,12.43
2023-02-09T09:46:36.527Z,11.53
2023-02-09T09:49:05.444Z,11.47
2023-02-09T09:51:39.807Z,11.33
2023-02-09T09:54:13.676Z,12.37
2023-02-09T09:56:42.588Z,11.97
2023-02-09T09:59:17.790Z,11.90
2023-02-09T10:01:47.828Z,10.93
2023-02-09T10:04:17.258Z,11.23
2023-02-09T10:06:49.115Z,11.37
2023-02-09T10:09:27.043Z,11.53
2023-02-09T10:12:04.542Z,11.37
2023-02-09T10:14:32.374Z,11.57
2023-02-09T10:17:01.632Z,11.43
2023-02-09T10:19:30.339Z,12.50
2023-02-09T10:21:58.276Z,10.93
2023-02-09T10:24:28.003Z,13.52
2023-02-09T10:27:13.894Z,13.03
2023-02-09T10:29:42.732Z,12.37
2023-02-09T10:32:20.190Z,12.30
2023-02-09T10:34:50.381Z,12.10
2023-02-09T10:37:25.982Z,12.83
2023-02-09T10:40:08.744Z,11.70
2023-02-09T10:42:38.880Z,12.00
2023-02-09T10:45:14.504Z,11.80
2023-02-09T10:47:44.433Z,12.63
2023-02-09T10:50:18.553Z,11.80
2023-02-09T10:52:57.142Z,12.13
2023-02-09T10:55:28.924Z,11.93
2023-02-09T10:58:14.061Z,12.20
2023-02-09T11:00:50.067Z,13.10
2023-02-09T11:03:21.569Z,12.27
2023-02-09T11:05:59.124Z,12.93
2023-02-09T11:08:35.903Z,12.45
2023-02-09T11:11:07.802Z,12.10
2023-02-09T11:13:36.016Z,12.47
2023-02-09T11:16:26.914Z,11.30
2023-02-09T11:19:01.949Z,11.68
2023-02-09T11:21:50.671Z,10.93
2023-02-09T11:24:26.539Z,12.33
2023-02-09T11:26:59.130Z,11.93
2023-02-09T11:29:31.724Z,12.13
2023-02-09T11:32:18.722Z,10.98
2023-02-09T11:35:11.488Z,11.97
2023-02-09T11:37:48.786Z,10.23
2023-02-09T11:40:30.008Z,11.03
2023-02-09T11:43:09.432Z,11.47
2023-02-09T11:45:44.705Z,11.10
2023-02-09T11:48:20.910Z,11.50
2023-02-09T11:51:05.517Z,10.83
2023-02-09T11:53:43.237Z,10.80
2023-02-09T11:56:14.159Z,10.50
2023-02-09T11:58:47.141Z,11.17
2023-02-09T12:01:28.476Z,10.93
2023-02-09T12:04:07.338Z,10.55
2023-02-09T12:06:40.963Z,10.55
2023-02-09T12:09:28.045Z,10.43
2023-02-09T12:12:05.516Z,11.40
2023-02-09T12:14:56.453Z,10.43
2023-02-09T12:17:30.132Z,10.70
2023-02-09T12:20:00.457Z,10.93
2023-02-09T12:22:54.576Z,10.55
2023-02-09T12:25:33.045Z,10.10
2023-02-09T12:28:19.422Z,9.80
2023-02-09T12:31:01.422Z,9.98
2023-02-09T12:33:33.567Z,10.23
2023-02-09T12:36:03.688Z,9.67
2023-02-09T12:39:07.385Z,9.73
2023-02-09T12:42:12.482Z,9.47
2023-02-09T12:44:55.981Z,9.73
2023-02-09T12:47:45.374Z,9.52
2023-02-09T12:50:45.673Z,9.68
2023-02-09T12:53:49.559Z,9.63
2023-02-09T12:56:34.585Z,9.90
2023-02-09T12:59:22.105Z,10.02
2023-02-09T13:02:18.007Z,9.55
2023-02-09T13:04:58.693Z,10.10
2023-02-09T13:07:36.445Z,9.55
2023-02-09T13:10:17.924Z,9.70
2023-02-09T13:12:51.700Z,9.82
2023-02-09T13:15:21.187Z,9.73
2023-02-09T13:18:01.915Z,9.95
2023-02-09T13:21:00.450Z,9.10
2023-02-09T13:23:36.538Z,10.55
2023-02-09T13:26:19.043Z,9.27
2023-02-09T13:28:48.587Z,9.90
2023-02-09T13:31:36.197Z,10.25
2023-02-09T13:34:14.914Z,10.98
2023-02-09T13:36:48.973Z,9.95
2023-02-09T13:39:24.378Z,10.18
2023-02-09T13:41:55.832Z,9.77
2023-02-09T13:44:26.563Z,10.40
2023-02-09T13:46:57.730Z,11.00
2023-02-09T13:49:27.726Z,11.32
2023-02-09T13:52:14.865Z,10.90
2023-02-09T13:54:43.961Z,10.63
2023-02-09T13:57:32.717Z,10.00
2023-02-09T14:00:09.451Z,11.02
2023-02-09T14:02:39.105Z,9.65
2023-02-09T14:05:09.727Z,10.30
2023-02-09T14:07:41.133Z,10.27
2023-02-09T14:10:17.059Z,9.15
2023-02-09T14:12:55.724Z,10.13
2023-02-09T14:15:46.438Z,9.80
2023-02-09T14:18:32.956Z,9.90
2023-02-09T14:21:03.138Z,10.10
2023-02-09T14:23:34.937Z,10.05
2023-02-09T14:26:17.316Z,10.20
2023-02-09T14:28:50.378Z,10.30
2023-02-09T14:31:21.647Z,10.27
2023-02-09T14:33:50.963Z,9.50
2023-02-09T14:36:30.594Z,9.93
2023-02-09T14:39:14.445Z,9.45
2023-02-09T14:41:42.904Z,9.98
2023-02-09T14:44:22.057Z,10.05
2023-02-09T14:46:52.486Z,8.57
2023-02-09T14:49:21.500Z,9.50
2023-02-09T14:51:51.517Z,9.68
2023-02-09T14:54:24.972Z,9.30
2023-02-09T14:56:54.415Z,9.88
2023-02-09T14:59:24.450Z,9.02
2023-02-09T15:01:54.055Z,9.85
2023-02-09T15:04:22.576Z,9.80
2023-02-09T15:07:01.696Z,9.52
2023-02-09T15:09:34.509Z,9.73
2023-02-09T15:12:06.344Z,10.45
2023-02-09T15:14:41.960Z,9.55
2023-02-09T15:17:14.722Z,9.65
2023-02-09T15:19:43.872Z,9.73
2023-02-09T15:22:14.870Z,9.07
2023-02-09T15:24:44.213Z,9.48
2023-02-09T15:27:26.414Z,9.38
2023-02-09T15:29:59.733Z,9.35
2023-02-09T15:32:29.417Z,9.55
2023-02-09T15:34:57.598Z,9.50
2023-02-09T15:37:28.461Z,9.35
2023-02-09T15:39:59.848Z,9.63
2023-02-09T15:42:45.553Z,9.82
2023-02-09T15:45:39.262Z,9.57
2023-02-09T15:48:07.844Z,10.00
2023-02-09T15:50:38.819Z,9.45
2023-02-09T15:53:09.453Z,9.18
2023-02-09T15:55:38.654Z,9.80
2023-02-09T15:58:14.647Z,9.70
2023-02-09T16:00:45.119Z,9.70
2023-02-09T16:03:16.709Z,8.48
2023-02-09T16:05:45.769Z,9.57
2023-02-09T16:08:20.091Z,9.45
2023-02-09T16:10:49.292Z,8.40
2023-02-09T16:13:19.144Z,8.90
2023-02-09T16:15:49.336Z,9.43
2023-02-09T16:18:17.754Z,9.52
2023-02-09T16:20:48.151Z,9.20
2023-02-09T16:23:21.462Z,8.57
2023-02-09T16:25:50.838Z,9.23
2023-02-09T16:28:19.899Z,8.65
2023-02-09T16:30:55.384Z,8.80
2023-02-09T16:33:26.699Z,9.63
2023-02-09T16:35:58.944Z,8.82
2023-02-09T16:38:28.092Z,9.05
2023-02-09T16:40:56.891Z,9.40
2023-02-09T16:43:25.460Z,9.43
2023-02-09T16:46:03.213Z,9.15
2023-02-09T16:48:34.687Z,8.93
2023-02-09T16:51:02.988Z,9.00
2023-02-09T16:53:33.852Z,9.05
2023-02-09T16:56:03.826Z,8.82
2023-02-09T16:58:32.274Z,9.50
2023-02-09T17:01:02.284Z,9.90
2023-02-09T17:03:35.580Z,9.07
2023-02-09T17:06:05.118Z,9.35
2023-02-09T17:08:35.467Z,8.98
2023-02-09T17:11:05.083Z,8.75
2023-02-09T17:13:33.878Z,8.82
2023-02-09T17:16:07.519Z,8.88
2023-02-09T17:18:40.164Z,8.48
2023-02-09T17:21:10.937Z,8.45
2023-02-09T17:23:41.463Z,8.88
2023-02-09T17:26:09.930Z,8.05
2023-02-09T17:28:38.015Z,9.20
2023-02-09T17:31:17.916Z,8.88
2023-02-09T17:33:50.640Z,8.45
2023-02-09T17:36:28.626Z,8.75
2023-02-09T17:38:58.467Z,8.73
2023-02-09T17:41:32.501Z,8.63
2023-02-09T17:44:23.842Z,8.95
2023-02-09T17:46:58.683Z,8.57
2023-02-09T17:49:28.811Z,8.32
2023-02-09T17:51:57.078Z,8.25
2023-02-09T17:54:25.323Z,8.15
2023-02-09T17:56:53.430Z,8.35
2023-02-09T17:59:21.467Z,8.43
2023-02-09T18:01:51.059Z,8.52
2023-02-09T18:04:22.127Z,8.00
2023-02-09T18:06:50.584Z,8.07
2023-02-09T18:09:19.790Z,8.10
2023-02-09T18:12:02.107Z,8.30
2023-02-09T18:14:32.160Z,7.40
2023-02-09T18:17:01.215Z,8.32
2023-02-09T18:19:33.170Z,8.20
2023-02-09T18:22:03.284Z,8.23
2023-02-09T18:24:34.732Z,8.00
2023-02-09T18:27:05.611Z,8.60
2023-02-09T18:29:42.566Z,8.23
2023-02-09T18:32:14.096Z,8.43
2023-02-09T18:34:44.457Z,8.00
2023-02-09T18:37:14.390Z,8.40
2023-02-09T18:39:46.775Z,7.43
2023-02-09T18:42:16.738Z,7.68
2023-02-09T18:44:45.510Z,8.30
2023-02-09T18:47:13.763Z,8.32
2023-02-09T18:49:43.210Z,8.18
2023-02-09T18:52:11.323Z,8.65
2023-02-09T18:54:40.685Z,8.75
2023-02-09T18:57:08.784Z,8.45
2023-02-09T18:59:37.524Z,8.95
2023-02-09T19:02:05.700Z,7.88
2023-02-09T19:04:33.761Z,7.88
2023-02-09T19:07:04.158Z,8.85
2023-02-09T19:09:32.592Z,8.15
2023-02-09T19:12:03.540Z,8.07
2023-02-09T19:14:42.069Z,8.82
2023-02-09T19:17:14.667Z,8.13
2023-02-09T19:19:43.314Z,8.40
2023-02-09T19:22:20.106Z,7.97
2023-02-09T19:24:53.266Z,8.30
2023-02-09T19:27:21.717Z,8.55
2023-02-09T19:29:53.488Z,8.43
2023-02-09T19:32:22.706Z,7.90
2023-02-09T19:34:52.600Z,8.85
2023-02-09T19:37:23.124Z,9.27
2023-02-09T19:40:03.818Z,9.20
2023-02-09T19:42:34.504Z,8.98
2023-02-09T19:45:03.706Z,9.50
2023-02-09T19:47:32.220Z,9.65
2023-02-09T19:50:00.883Z,9.65
2023-02-09T19:52:35.076Z,10.38
2023-02-09T19:55:04.178Z,9.32
2023-02-09T19:57:32.916Z,9.73
2023-02-09T20:00:01.417Z,10.40
2023-02-09T20:02:29.870Z,9.68
2023-02-09T20:04:58.509Z,9.52
2023-02-09T20:07:26.530Z,10.32
2023-02-09T20:09:57.929Z,9.48
2023-02-09T20:12:28.413Z,11.50
2023-02-09T20:14:56.861Z,10.45
2023-02-09T20:17:25.141Z,10.68
2023-02-09T20:19:53.486Z,11.27
2023-02-09T20:22:22.573Z,11.25
2023-02-09T20:24:51.367Z,11.10
2023-02-09T20:27:21.005Z,11.32
2023-02-09T20:29:51.677Z,12.18
2023-02-09T20:32:20.252Z,11.43
2023-02-09T20:34:48.893Z,12.50
2023-02-09T20:37:17.194Z,11.40
2023-02-09T20:39:45.565Z,12.52
2023-02-09T20:42:31.402Z,11.40
2023-02-09T20:45:18.463Z,12.10
2023-02-09T20:47:46.555Z,12.35
2023-02-09T20:50:17.172Z,11.50
2023-02-09T20:52:48.721Z,12.00
2023-02-09T20:55:17.345Z,12.27
2023-02-09T20:57:45.744Z,11.48
2023-02-09T21:00:17.902Z,12.85
2023-02-09T21:02:48.175Z,12.80
2023-02-09T21:05:16.671Z,12.05
2023-02-09T21:07:45.179Z,11.30
2023-02-09T21:10:15.684Z,12.60
2023-02-09T21:12:44.087Z,12.68
2023-02-09T21:15:12.140Z,12.68
2023-02-09T21:17:47.600Z,12.32
2023-02-09T21:20:16.693Z,12.40
2023-02-09T21:22:45.048Z,12.65
2023-02-09T21:25:13.952Z,12.63
2023-02-09T21:27:41.858Z,12.98
2023-02-09T21:30:11.191Z,12.40
2023-02-09T21:32:39.669Z,12.50
2023-02-09T21:35:10.854Z,12.55
2023-02-09T21:37:39.322Z,12.00
2023-02-09T21:40:08.036Z,12.75
2023-02-09T21:42:36.900Z,12.70
2023-02-09T21:45:06.715Z,13.25
2023-02-09T21:47:37.612Z,12.23
2023-02-09T21:50:07.604Z,13.20
2023-02-09T21:52:41.424Z,13.25
2023-02-09T21:55:09.945Z,12.90
2023-02-09T21:57:38.361Z,12.07
2023-02-09T22:00:09.208Z,13.13
2023-02-09T22:02:37.896Z,12.00
2023-02-09T22:05:06.959Z,12.65
2023-02-09T22:07:35.966Z,13.02
2023-02-09T22:10:06.439Z,12.82
2023-02-09T22:12:36.427Z,12.48
2023-02-09T22:15:05.044Z,12.60
2023-02-09T22:17:33.231Z,13.43
2023-02-09T22:20:01.447Z,13.25
2023-02-09T22:22:31.204Z,13.02
2023-02-09T22:25:00.251Z,12.35
2023-02-09T22:27:29.690Z,13.40
2023-02-09T22:30:00.036Z,12.82
2023-02-09T22:32:28.084Z,11.98
2023-02-09T22:34:56.119Z,12.68
2023-02-09T22:37:24.431Z,12.80
2023-02-09T22:39:52.866Z,12.07
2023-02-09T22:42:21.113Z,12.85
2023-02-09T22:44:50.959Z,11.95
2023-02-09T22:47:19.891Z,12.40
2023-02-09T22:49:48.071Z,12.88
2023-02-09T22:52:16.401Z,11.73
2023-02-09T22:54:44.863Z,12.30
2023-02-09T22:57:13.060Z,12.23
2023-02-09T22:59:41.386Z,12.52
2023-02-09T23:02:12.634Z,12.95
2023-02-09T23:04:40.786Z,12.70
2023-02-09T23:07:08.913Z,12.50
2023-02-09T23:09:37.470Z,12.85
2023-02-09T23:12:06.411Z,12.73
2023-02-09T23:14:34.422Z,12.27
2023-02-09T23:17:05.088Z,12.63
2023-02-09T23:19:36.255Z,13.38
2023-02-09T23:22:04.507Z,12.52
2023-02-09T23:24:33.047Z,12.65
2023-02-09T23:27:01.175Z,12.25
2023-02-09T23:29:30.668Z,12.90
2023-02-09T23:31:59.829Z,12.98
2023-02-09T23:34:28.107Z,13.05
2023-02-09T23:37:05.006Z,12.68
2023-02-09T23:39:42.883Z,11.98
2023-02-09T23:42:10.948Z,13.40
2023-02-09T23:44:41.549Z,12.73
2023-02-09T23:47:09.889Z,13.18
2023-02-09T23:49:40.208Z,12.60
2023-02-09T23:52:11.247Z,12.95
2023-02-09T23:54:39.678Z,12.75
2023-02-09T23:57:07.854Z,13.10
2023-02-09T23:59:36.635Z,12.43
